Time;durP1;ratioP1;P1;durP2;ratioP2;P2;SDS_P1;SDS_P2;PMS_P1;PMS_P2;Temp;Humidity;BMP_temperature;BMP_pressure;BME280_temperature;BME280_humidity;BME280_pressure;Samples;Min_cycle;Max_cycle;Signal;HPM_P1;HPM_P2
2022/04/27 00:00:21;;;;;;;1.30;1.30;;;18.90;64.80;;;;;;5150028;27;43957;-71
2022/04/27 00:02:49;;;;;;;1.73;1.73;;;18.90;65.00;;;;;;5131234;27;45876;-70
2022/04/27 00:05:17;;;;;;;1.57;1.57;;;18.80;65.10;;;;;;5149367;27;44026;-71
2022/04/27 00:07:45;;;;;;;1.60;1.60;;;18.80;65.20;;;;;;5131041;27;43983;-70
2022/04/27 00:10:14;;;;;;;1.50;1.50;;;18.80;65.30;;;;;;5131333;27;43892;-71
2022/04/27 00:12:42;;;;;;;1.50;1.50;;;18.70;65.40;;;;;;5131184;27;46360;-69
2022/04/27 00:15:11;;;;;;;1.70;1.70;;;18.80;65.90;;;;;;5130425;27;45551;-70
2022/04/27 00:17:39;;;;;;;1.63;1.63;;;19.00;65.60;;;;;;5150145;27;43989;-70
2022/04/27 00:20:08;;;;;;;1.50;1.50;;;19.10;65.00;;;;;;5130971;27;43604;-71
2022/04/27 00:22:36;;;;;;;1.40;1.40;;;19.30;64.40;;;;;;5149568;27;43970;-70
2022/04/27 00:25:05;;;;;;;1.53;1.53;;;19.40;63.90;;;;;;5149755;27;44446;-71
2022/04/27 00:27:34;;;;;;;1.50;1.50;;;19.50;63.70;;;;;;5149326;27;43415;-70
2022/04/27 00:30:02;;;;;;;1.57;1.57;;;19.40;63.60;;;;;;5149847;27;43938;-71
2022/04/27 00:32:30;;;;;;;1.63;1.63;;;19.30;63.60;;;;;;5148899;27;43935;-70
2022/04/27 00:34:58;;;;;;;1.40;1.40;;;19.20;63.70;;;;;;5149266;27;43908;-70
2022/04/27 00:37:26;;;;;;;1.50;1.50;;;19.10;64.00;;;;;;5130187;27;44042;-70
2022/04/27 00:39:54;;;;;;;1.70;1.70;;;19.10;64.30;;;;;;5149011;27;44013;-71
2022/04/27 00:42:24;;;;;;;1.50;1.50;;;19.00;64.50;;;;;;5148964;27;45115;-69
2022/04/27 00:44:54;;;;;;;1.53;1.53;;;18.90;64.60;;;;;;5130222;27;45287;-70
2022/04/27 00:47:21;;;;;;;1.50;1.50;;;18.90;64.90;;;;;;5130283;27;43475;-71
2022/04/27 00:49:51;;;;;;;1.47;1.47;;;18.90;65.30;;;;;;5131107;27;44232;-71
2022/04/27 00:52:20;;;;;;;1.40;1.40;;;19.00;65.20;;;;;;5148281;27;44213;-70
2022/04/27 00:54:49;;;;;;;1.60;1.60;;;19.20;64.90;;;;;;5130367;27;45223;-69
2022/04/27 00:57:17;;;;;;;2.47;1.60;;;19.30;64.30;;;;;;5129753;27;43880;-70
2022/04/27 00:59:46;;;;;;;1.67;1.67;;;19.30;63.80;;;;;;5149322;27;43941;-70
2022/04/27 01:02:18;;;;;;;1.50;1.50;;;19.30;63.80;;;;;;5129734;27;45750;-72
2022/04/27 01:04:46;;;;;;;1.53;1.53;;;19.20;63.80;;;;;;5149000;27;44203;-73
2022/04/27 01:07:14;;;;;;;1.33;1.33;;;19.10;64.00;;;;;;5129968;27;44313;-73
2022/04/27 01:09:44;;;;;;;1.50;1.50;;;19.10;64.40;;;;;;5149403;27;44032;-72
2022/04/27 01:12:13;;;;;;;1.70;1.70;;;19.00;64.50;;;;;;5129532;27;45114;-73
2022/04/27 01:14:49;;;;;;;1.60;1.60;;;18.90;64.70;;;;;;5129663;27;43451;-72
2022/04/27 01:17:21;;;;;;;1.53;1.53;;;18.90;64.90;;;;;;5129528;27;43754;-73
2022/04/27 01:19:49;;;;;;;1.43;1.43;;;18.80;65.00;;;;;;5130341;27;44045;-73
2022/04/27 01:22:18;;;;;;;1.50;1.50;;;18.80;65.40;;;;;;5148131;27;44058;-72
2022/04/27 01:24:47;;;;;;;1.60;1.60;;;18.90;65.50;;;;;;5129803;27;44078;-72
2022/04/27 01:27:15;;;;;;;1.50;1.50;;;19.00;65.10;;;;;;5129108;27;43401;-72
2022/04/27 01:29:44;;;;;;;1.80;1.80;;;19.20;64.60;;;;;;5149199;27;43909;-72
2022/04/27 01:32:11;;;;;;;1.50;1.50;;;19.30;64.20;;;;;;5129286;27;45936;-72
2022/04/27 01:34:39;;;;;;;1.70;1.50;;;19.30;64.00;;;;;;5129580;27;44383;-74
2022/04/27 01:39:54;;;;;;;1.40;1.40;;;19.10;64.00;;;;;;5130047;27;43559;-72
2022/04/27 01:42:22;;;;;;;1.60;1.60;;;19.00;64.30;;;;;;5128784;27;45971;-73
2022/04/27 01:44:50;;;;;;;1.47;1.47;;;18.90;64.50;;;;;;5148305;27;43994;-72
2022/04/27 01:47:18;;;;;;;1.47;1.47;;;18.90;64.70;;;;;;5128689;27;43425;-72
2022/04/27 01:49:46;;;;;;;1.47;1.47;;;18.90;64.90;;;;;;5148766;27;43458;-72
2022/04/27 01:55:04;;;;;;;1.70;1.70;;;18.80;65.20;;;;;;5129173;27;44003;-73
2022/04/27 01:57:33;;;;;;;1.30;1.30;;;18.80;65.60;;;;;;5148267;27;43968;-73
2022/04/27 02:00:01;;;;;;;1.50;1.50;;;18.80;65.40;;;;;;5129527;27;43879;-74
2022/04/27 02:02:30;;;;;;;1.50;1.50;;;19.00;65.10;;;;;;5144497;27;43990;-72
2022/04/27 02:04:59;;;;;;;1.30;1.30;;;19.20;64.60;;;;;;5128957;27;43978;-73
2022/04/27 02:07:27;;;;;;;1.53;1.53;;;19.30;64.00;;;;;;5128541;27;43961;-73
2022/04/27 02:09:55;;;;;;;1.63;1.63;;;19.30;63.80;;;;;;5129909;27;44117;-73
2022/04/27 02:12:27;;;;;;;1.40;1.40;;;19.20;63.80;;;;;;5128454;27;45767;-73
2022/04/27 02:15:19;;;;;;;1.57;1.57;;;19.20;64.00;;;;;;5128452;27;43435;-72
2022/04/27 02:17:50;;;;;;;1.40;1.40;;;19.10;64.30;;;;;;5129117;27;44510;-73
2022/04/27 02:20:22;;;;;;;1.73;1.73;;;19.00;64.50;;;;;;5128888;27;44026;-73
2022/04/27 02:22:50;;;;;;;1.53;1.53;;;18.90;64.60;;;;;;5147750;27;43996;-73
2022/04/27 02:25:18;;;;;;;1.50;1.50;;;18.80;64.70;;;;;;5128863;27;44511;-73
2022/04/27 02:27:49;;;;;;;1.40;1.40;;;18.80;64.90;;;;;;5129170;27;43927;-72
2022/04/27 02:30:18;;;;;;;1.40;1.40;;;18.80;65.20;;;;;;5128538;27;44089;-71
2022/04/27 02:32:46;;;;;;;1.40;1.40;;;18.80;65.40;;;;;;5128485;27;46093;-73
2022/04/27 02:35:15;;;;;;;1.50;1.50;;;18.90;65.10;;;;;;5127959;27;44175;-73
2022/04/27 02:37:46;;;;;;;1.37;1.37;;;19.10;64.70;;;;;;5129302;27;44082;-73
2022/04/27 02:40:14;;;;;;;1.50;1.50;;;19.10;64.30;;;;;;5129033;27;44031;-72
2022/04/27 02:42:43;;;;;;;1.37;1.37;;;19.10;64.30;;;;;;5147941;27;44001;-72
2022/04/27 02:45:14;;;;;;;1.47;1.47;;;19.00;64.40;;;;;;5128231;27;45406;-73
2022/04/27 02:47:42;;;;;;;1.30;1.30;;;18.90;64.50;;;;;;5128917;27;43411;-72
2022/04/27 02:52:58;;;;;;;1.23;1.23;;;18.80;64.90;;;;;;5128468;27;43855;-72
2022/04/27 02:55:34;;;;;;;1.60;1.60;;;18.80;65.10;;;;;;5128263;27;44728;-73
2022/04/27 02:58:03;;;;;;;1.67;1.67;;;18.70;65.10;;;;;;5128874;27;44079;-72
2022/04/27 03:00:34;;;;;;;1.63;1.63;;;18.70;65.20;;;;;;5128428;27;43585;-73
2022/04/27 03:03:08;;;;;;;1.30;1.30;;;18.70;65.30;;;;;;5129892;27;45870;-72
2022/04/27 03:05:37;;;;;;;1.60;1.60;;;18.70;65.50;;;;;;5132322;27;43990;-72
2022/04/27 03:08:06;;;;;;;1.57;1.57;;;18.70;65.60;;;;;;5131975;27;44040;-73
2022/04/27 03:10:42;;;;;;;1.43;1.40;;;18.90;65.30;;;;;;5132592;27;43583;-73
2022/04/27 03:13:10;;;;;;;1.50;1.50;;;19.10;64.80;;;;;;5150426;27;43630;-72
2022/04/27 03:15:40;;;;;;;1.40;1.40;;;19.30;64.20;;;;;;5131097;27;44311;-72
2022/04/27 03:18:20;;;;;;;1.40;1.40;;;19.40;63.70;;;;;;5131808;27;44445;-73
2022/04/27 03:20:50;;;;;;;1.57;1.57;;;19.40;63.40;;;;;;5132273;27;43988;-73
2022/04/27 03:23:18;;;;;;;1.63;1.63;;;19.30;63.50;;;;;;5149938;27;43782;-72
2022/04/27 03:25:51;;;;;;;1.50;1.50;;;19.20;63.60;;;;;;5131593;27;44859;-72
2022/04/27 03:28:19;;;;;;;1.30;1.30;;;19.10;63.80;;;;;;5150139;27;44017;-72
2022/04/27 03:30:49;;;;;;;1.50;1.50;;;19.00;64.10;;;;;;5131852;27;44028;-73
2022/04/27 03:33:27;;;;;;;1.40;1.40;;;18.90;64.30;;;;;;5130891;27;43908;-73
2022/04/27 03:35:55;;;;;;;1.60;1.60;;;18.90;64.60;;;;;;5131412;27;43475;-73
2022/04/27 03:38:24;;;;;;;1.40;1.40;;;18.80;64.70;;;;;;5131008;27;44025;-73
2022/04/27 03:40:53;;;;;;;1.87;1.77;;;18.80;65.20;;;;;;5131646;27;44300;-73
2022/04/27 03:43:22;;;;;;;1.60;1.57;;;18.90;65.30;;;;;;5130984;27;44165;-72
2022/04/27 03:45:51;;;;;;;2.03;1.83;;;19.00;64.80;;;;;;5131221;27;44024;-73
2022/04/27 03:48:19;;;;;;;2.70;2.20;;;19.10;64.50;;;;;;5130816;27;44592;-72
2022/04/27 03:50:47;;;;;;;2.90;2.17;;;19.10;64.30;;;;;;5131678;27;43740;-73
2022/04/27 03:53:15;;;;;;;3.30;2.53;;;19.10;64.20;;;;;;5130563;27;45606;-73
2022/04/27 03:55:43;;;;;;;5.47;3.70;;;19.00;64.30;;;;;;5131103;27;44609;-73
2022/04/27 03:58:12;;;;;;;4.63;3.27;;;18.90;64.50;;;;;;5131227;27;44006;-73
2022/04/27 04:00:40;;;;;;;4.77;3.37;;;18.80;64.70;;;;;;5131734;27;43943;-73
2022/04/27 04:03:19;;;;;;;3.80;3.30;;;18.80;64.90;;;;;;5130347;27;44885;-73
2022/04/27 04:05:54;;;;;;;7.60;3.73;;;18.70;65.00;;;;;;5130849;27;43362;-73
2022/04/27 04:08:25;;;;;;;5.30;3.90;;;18.70;65.10;;;;;;5130507;27;43398;-72
2022/04/27 04:10:54;;;;;;;6.30;4.27;;;18.70;65.30;;;;;;5124773;27;44304;-73
2022/04/27 04:13:30;;;;;;;6.63;3.90;;;18.70;65.40;;;;;;5124902;27;44280;-73
2022/04/27 04:16:08;;;;;;;7.10;4.23;;;18.70;65.70;;;;;;5148325;27;44980;-72
2022/04/27 04:18:56;;;;;;;8.30;4.53;;;18.80;65.50;;;;;;5146950;27;44027;-73
2022/04/27 04:21:54;;;;;;;7.43;4.43;;;19.00;64.90;;;;;;5075041;27;43928;-73
2022/04/27 04:24:37;;;;;;;8.93;4.50;;;19.20;64.20;;;;;;5130958;27;46035;-72
2022/04/27 04:29:52;;;;;;;5.93;3.93;;;19.30;63.80;;;;;;5130949;27;43469;-72
2022/04/27 04:32:20;;;;;;;5.20;4.67;;;19.20;63.80;;;;;;5131187;27;43379;-74
2022/04/27 04:35:07;;;;;;;4.67;4.07;;;19.10;64.00;;;;;;5130463;27;44056;-73
2022/04/27 04:37:35;;;;;;;5.93;3.93;;;18.90;64.30;;;;;;5130910;27;44059;-73
2022/04/27 04:40:04;;;;;;;6.90;4.70;;;18.90;64.60;;;;;;5131079;27;44282;-72
2022/04/27 04:42:34;;;;;;;6.40;4.43;;;18.80;64.70;;;;;;5131496;27;44010;-73
2022/04/27 04:45:02;;;;;;;7.23;3.97;;;18.80;64.80;;;;;;5131144;27;44185;-74
2022/04/27 04:47:53;;;;;;;13.83;5.40;;;18.70;64.90;;;;;;5140208;27;43484;-73
2022/04/27 04:50:46;;;;;;;7.27;4.83;;;18.70;65.30;;;;;;5137951;27;43939;-72
2022/04/27 04:53:40;;;;;;;6.33;4.10;;;18.80;65.40;;;;;;5126986;27;43883;-73
2022/04/27 04:56:36;;;;;;;10.00;4.93;;;18.90;65.00;;;;;;5074515;27;44095;-73
2022/04/27 04:59:19;;;;;;;8.03;4.63;;;19.00;64.50;;;;;;5130626;27;43994;-73
2022/04/27 05:02:22;;;;;;;7.73;4.23;;;19.00;64.10;;;;;;5083231;27;44013;-73
2022/04/27 05:04:57;;;;;;;6.23;4.10;;;19.00;64.10;;;;;;5121153;27;43538;-73
2022/04/27 05:07:41;;;;;;;4.80;4.00;;;18.90;64.30;;;;;;5146338;27;44330;-74
2022/04/27 05:10:27;;;;;;;6.77;4.53;;;18.80;64.40;;;;;;5146116;27;44135;-72
2022/04/27 05:13:13;;;;;;;5.83;4.40;;;18.80;64.70;;;;;;5130444;27;44022;-72
2022/04/27 05:16:07;;;;;;;7.70;4.37;;;18.70;64.80;;;;;;5116766;27;44063;-74
2022/04/27 05:19:02;;;;;;;5.93;4.80;;;18.70;64.90;;;;;;5130337;27;44811;-73
2022/04/27 05:21:52;;;;;;;5.57;4.47;;;18.70;64.90;;;;;;5130052;27;44464;-73
2022/04/27 05:24:42;;;;;;;5.83;4.70;;;18.70;65.10;;;;;;5105934;27;43900;-73
2022/04/27 05:27:18;;;;;;;6.17;4.77;;;18.70;65.40;;;;;;5130579;27;44224;-73
2022/04/27 05:32:59;;;;;;;6.83;4.27;;;19.00;64.70;;;;;;5145793;27;43976;-73
2022/04/27 05:35:50;;;;;;;7.10;4.80;;;19.20;64.10;;;;;;5137132;27;43377;-73
2022/04/27 05:38:38;;;;;;;5.43;4.60;;;19.30;63.50;;;;;;5105591;27;44067;-73
2022/04/27 05:41:27;;;;;;;6.80;4.60;;;19.30;63.30;;;;;;5145604;27;43623;-73
2022/04/27 05:44:09;;;;;;;6.10;4.33;;;19.20;63.30;;;;;;5148972;27;43906;-73
2022/04/27 05:46:56;;;;;;;6.90;4.53;;;19.20;63.50;;;;;;5129949;27;44009;-73
2022/04/27 05:49:36;;;;;;;6.30;4.43;;;19.00;63.70;;;;;;5129834;27;43909;-73
2022/04/27 05:52:17;;;;;;;4.43;4.10;;;18.90;64.00;;;;;;5129628;27;45745;-74
2022/04/27 05:55:05;;;;;;;5.10;4.53;;;18.90;64.30;;;;;;5147822;27;43817;-74
2022/04/27 05:57:49;;;;;;;5.57;4.50;;;18.80;64.40;;;;;;5130169;27;43962;-74
2022/04/27 06:00:32;;;;;;;5.00;4.50;;;18.80;65.00;;;;;;5148785;27;43963;-73
2022/04/27 06:03:23;;;;;;;5.60;4.60;;;18.80;65.00;;;;;;5129195;27;44113;-72
2022/04/27 06:05:53;;;;;;;5.23;4.73;;;19.00;64.50;;;;;;5148889;27;43878;-72
2022/04/27 06:08:21;;;;;;;5.40;5.00;;;19.10;64.20;;;;;;5139996;27;43339;-73
2022/04/27 06:10:57;;;;;;;4.90;4.50;;;19.10;64.00;;;;;;5123779;27;44016;-72
2022/04/27 06:13:27;;;;;;;5.27;4.87;;;19.00;63.90;;;;;;5129428;27;44056;-72
2022/04/27 06:16:13;;;;;;;5.03;4.60;;;19.00;64.00;;;;;;5129389;27;43482;-73
2022/04/27 06:18:59;;;;;;;5.20;4.70;;;18.90;64.20;;;;;;5129764;27;44007;-72
2022/04/27 06:21:31;;;;;;;5.00;4.60;;;18.80;64.40;;;;;;5129404;27;43984;-72
2022/04/27 06:24:00;;;;;;;5.20;4.70;;;18.80;64.60;;;;;;5122419;27;44020;-73
2022/04/27 06:26:30;;;;;;;4.87;4.40;;;18.70;64.70;;;;;;5122772;27;44695;-73
2022/04/27 06:29:00;;;;;;;4.50;4.10;;;18.70;64.80;;;;;;5123359;27;43397;-72
2022/04/27 06:31:30;;;;;;;4.73;4.43;;;18.70;64.90;;;;;;5129655;27;43912;-72
2022/04/27 06:34:01;;;;;;;4.77;4.47;;;18.70;65.00;;;;;;5128806;27;44112;-73
2022/04/27 06:36:29;;;;;;;4.90;4.50;;;18.60;65.20;;;;;;5129237;27;43978;-73
2022/04/27 06:38:59;;;;;;;5.17;4.77;;;18.70;65.10;;;;;;5132329;27;43355;-73
2022/04/27 06:41:32;;;;;;;5.70;5.20;;;18.90;65.40;;;;;;5152274;27;43533;-72
2022/04/27 06:44:19;;;;;;;5.37;4.97;;;19.10;64.20;;;;;;5147996;27;43934;-72
2022/04/27 06:47:06;;;;;;;4.93;4.53;;;19.30;63.60;;;;;;5148484;27;44018;-72
2022/04/27 06:49:53;;;;;;;4.83;4.47;;;19.30;63.20;;;;;;5148619;27;44023;-73
2022/04/27 06:52:41;;;;;;;5.57;5.07;;;19.30;63.20;;;;;;5148974;27;43923;-72
2022/04/27 06:55:28;;;;;;;5.40;5.00;;;19.20;63.30;;;;;;5148449;27;43969;-72
2022/04/27 06:57:56;;;;;;;5.10;4.80;;;19.10;63.60;;;;;;5148458;27;44161;-72
2022/04/27 07:00:26;;;;;;;5.40;5.00;;;19.00;63.80;;;;;;5132637;27;43564;-73
2022/04/27 07:02:55;;;;;;;5.13;4.83;;;18.90;64.10;;;;;;5132908;27;43565;-73
2022/04/27 07:05:24;;;;;;;4.43;4.13;;;18.80;64.30;;;;;;5132151;27;45414;-73
2022/04/27 07:07:52;;;;;;;4.57;4.27;;;18.80;64.50;;;;;;5132494;27;44673;-72
2022/04/27 07:10:21;;;;;;;5.23;4.80;;;18.70;64.70;;;;;;5151254;27;43439;-73
2022/04/27 07:12:49;;;;;;;4.80;4.50;;;18.80;65.10;;;;;;5151647;27;44062;-71
2022/04/27 07:15:57;;;;;;;4.73;4.43;;;18.90;64.80;;;;;;5150460;27;44699;-73
2022/04/27 07:18:25;;;;;;;4.50;4.20;;;19.00;64.30;;;;;;5131695;27;44476;-73
2022/04/27 07:20:53;;;;;;;5.23;4.73;;;19.10;64.00;;;;;;5151655;27;43851;-73
2022/04/27 07:23:21;;;;;;;4.83;4.43;;;19.00;63.90;;;;;;5151752;27;43513;-72
2022/04/27 07:25:49;;;;;;;4.37;4.17;;;19.00;64.10;;;;;;5151299;27;43756;-73
2022/04/27 07:28:17;;;;;;;4.43;4.23;;;18.90;64.20;;;;;;5150804;27;43343;-72
2022/04/27 07:30:45;;;;;;;4.53;4.33;;;18.80;64.40;;;;;;5151169;27;44047;-72
2022/04/27 07:33:14;;;;;;;4.63;4.43;;;18.80;64.70;;;;;;5150939;27;43521;-72
2022/04/27 07:35:42;;;;;;;4.60;4.30;;;18.70;64.80;;;;;;5132333;27;45856;-73
2022/04/27 07:38:10;;;;;;;4.40;4.20;;;18.70;64.90;;;;;;5150972;27;43976;-72
2022/04/27 07:40:38;;;;;;;4.63;4.37;;;18.70;65.00;;;;;;5151057;27;43909;-72
2022/04/27 07:43:06;;;;;;;4.77;4.37;;;18.60;65.00;;;;;;5151373;27;44049;-72
2022/04/27 07:45:34;;;;;;;4.73;4.43;;;18.60;65.30;;;;;;5150163;27;44020;-73
2022/04/27 07:48:02;;;;;;;4.43;4.20;;;18.70;65.40;;;;;;5150807;27;43983;-72
2022/04/27 07:50:31;;;;;;;4.40;4.20;;;18.80;65.00;;;;;;5149285;27;43323;-72
2022/04/27 07:52:59;;;;;;;4.23;4.03;;;19.00;64.50;;;;;;5125626;27;43486;-73
2022/04/27 07:55:27;;;;;;;5.00;4.70;;;19.20;64.00;;;;;;5143294;27;43960;-73
2022/04/27 07:57:55;;;;;;;4.90;4.60;;;19.30;63.60;;;;;;5118151;27;44455;-73
2022/04/27 08:00:23;;;;;;;4.57;4.20;;;19.20;63.40;;;;;;5144013;27;43389;-73
2022/04/27 08:02:51;;;;;;;4.73;4.40;;;19.10;63.50;;;;;;5144346;27;44029;-73
2022/04/27 08:05:19;;;;;;;4.50;4.30;;;19.10;63.90;;;;;;5143197;27;45087;-73
2022/04/27 08:07:48;;;;;;;4.90;4.60;;;19.00;64.10;;;;;;5143765;27;44176;-72
2022/04/27 08:10:16;;;;;;;4.47;4.27;;;18.90;64.30;;;;;;5143724;27;43896;-73
2022/04/27 08:12:46;;;;;;;4.73;4.53;;;18.80;64.40;;;;;;5144624;27;44436;-73
2022/04/27 08:15:15;;;;;;;4.93;4.57;;;18.80;64.60;;;;;;5124100;27;44094;-73
2022/04/27 08:17:57;;;;;;;4.70;4.40;;;18.70;64.70;;;;;;5150386;27;43771;-73
2022/04/27 08:23:17;;;;;;;5.17;4.87;;;18.80;65.10;;;;;;5131749;27;44179;-73
2022/04/27 08:25:46;;;;;;;4.50;4.10;;;18.90;64.60;;;;;;5150010;27;44056;-72
2022/04/27 08:28:14;;;;;;;4.30;4.10;;;19.00;64.30;;;;;;5149842;27;43474;-73
2022/04/27 08:30:42;;;;;;;4.47;4.27;;;19.00;64.10;;;;;;5150477;27;43891;-72
2022/04/27 08:33:10;;;;;;;4.77;4.47;;;19.00;64.10;;;;;;5150684;27;43415;-72
2022/04/27 08:35:38;;;;;;;4.47;4.27;;;18.90;64.30;;;;;;5150002;27;44064;-72
2022/04/27 08:38:07;;;;;;;4.37;4.10;;;18.80;64.50;;;;;;5150202;27;43656;-73
2022/04/27 08:40:37;;;;;;;4.50;4.20;;;18.80;64.70;;;;;;5149963;27;43415;-72
2022/04/27 08:43:05;;;;;;;4.23;4.03;;;18.70;64.80;;;;;;5150487;27;44180;-73
2022/04/27 08:45:33;;;;;;;4.23;3.97;;;18.70;64.90;;;;;;5149509;27;43929;-72
2022/04/27 08:48:01;;;;;;;4.70;4.40;;;18.60;65.00;;;;;;5149753;27;44025;-73
2022/04/27 08:50:29;;;;;;;4.67;4.37;;;18.60;65.10;;;;;;5110879;27;44072;-73
2022/04/27 08:52:57;;;;;;;5.30;5.00;;;18.60;65.10;;;;;;5150156;27;43944;-73
2022/04/27 08:55:27;;;;;;;4.97;4.57;;;18.60;65.40;;;;;;5149182;27;44999;-73
2022/04/27 08:58:06;;;;;;;4.40;4.20;;;18.70;65.40;;;;;;5149783;27;43839;-73
2022/04/27 09:00:55;;;;;;;4.37;4.10;;;18.90;65.00;;;;;;5149002;27;44004;-73
2022/04/27 09:03:30;;;;;;;4.07;3.93;;;19.10;64.50;;;;;;5149673;27;43983;-73
2022/04/27 09:06:01;;;;;;;4.67;4.43;;;19.20;63.80;;;;;;5149293;27;43915;-73
2022/04/27 09:08:37;;;;;;;4.57;4.27;;;19.30;63.50;;;;;;5149299;27;44216;-74
2022/04/27 09:11:21;;;;;;;4.23;4.03;;;19.20;63.30;;;;;;5143573;27;44015;-73
2022/04/27 09:13:52;;;;;;;4.27;4.13;;;19.10;63.60;;;;;;5149861;27;44266;-73
2022/04/27 09:16:21;;;;;;;3.90;3.80;;;19.00;63.80;;;;;;5149003;27;44104;-73
2022/04/27 09:21:58;;;;;;;4.00;3.80;;;18.90;64.50;;;;;;5149803;27;44024;-73
2022/04/27 09:24:26;;;;;;;4.53;4.23;;;18.80;64.70;;;;;;5147263;27;43988;-72
2022/04/27 09:27:02;;;;;;;4.37;4.03;;;18.70;64.80;;;;;;5149233;27;43952;-73
2022/04/27 09:29:31;;;;;;;4.03;3.83;;;18.70;64.90;;;;;;5130114;27;44901;-73
2022/04/27 09:32:01;;;;;;;4.20;4.00;;;18.70;65.20;;;;;;5130554;27;43927;-73
2022/04/27 09:34:33;;;;;;;6.03;4.13;;;18.80;65.00;;;;;;5148793;27;43987;-72
2022/04/27 09:37:01;;;;;;;6.47;4.40;;;19.00;64.60;;;;;;5148834;27;45143;-71
2022/04/27 09:39:30;;;;;;;5.23;4.57;;;19.00;64.20;;;;;;5130076;27;44806;-72
2022/04/27 09:42:04;;;;;;;4.57;4.17;;;19.00;64.10;;;;;;5148988;27;44028;-73
2022/04/27 09:44:34;;;;;;;4.40;4.10;;;18.90;64.30;;;;;;5148765;27;43994;-73
2022/04/27 09:47:03;;;;;;;4.53;4.20;;;18.90;64.50;;;;;;5148975;27;43825;-73
2022/04/27 09:49:32;;;;;;;3.93;3.80;;;18.80;64.60;;;;;;5148436;27;43938;-73
2022/04/27 09:52:01;;;;;;;4.30;3.97;;;18.80;64.80;;;;;;5130286;27;44438;-72
2022/04/27 09:54:29;;;;;;;4.37;4.00;;;18.70;64.90;;;;;;5149210;27;43555;-73
2022/04/27 09:56:58;;;;;;;4.30;3.97;;;18.70;65.10;;;;;;5148649;27;43947;-72
2022/04/27 09:59:27;;;;;;;4.30;4.10;;;18.60;65.10;;;;;;5148184;27;44004;-72
2022/04/27 10:01:58;;;;;;;4.40;4.10;;;18.60;65.20;;;;;;5149153;27;43978;-73
2022/04/27 10:04:28;;;;;;;4.23;3.93;;;18.60;65.40;;;;;;5148920;27;43952;-72
2022/04/27 10:06:58;;;;;;;4.17;3.80;;;18.70;65.60;;;;;;5141511;27;43598;-72
2022/04/27 10:09:27;;;;;;;3.67;3.50;;;18.80;65.30;;;;;;5141891;27;43395;-73
2022/04/27 10:12:11;;;;;;;3.70;3.50;;;19.00;64.80;;;;;;5149909;27;43941;-73
2022/04/27 10:14:39;;;;;;;4.10;3.80;;;19.20;64.30;;;;;;5149625;27;43946;-73
2022/04/27 10:17:08;;;;;;;5.23;3.57;;;19.30;63.80;;;;;;5148319;27;44107;-73
2022/04/27 10:19:36;;;;;;;3.67;3.47;;;19.30;63.50;;;;;;5129586;27;45065;-72
2022/04/27 10:22:05;;;;;;;4.13;3.90;;;19.20;63.50;;;;;;5148596;27;43457;-72
2022/04/27 10:24:52;;;;;;;3.40;3.20;;;19.10;63.70;;;;;;5147936;27;43929;-73
2022/04/27 10:27:21;;;;;;;3.60;3.40;;;19.00;64.00;;;;;;5148333;27;45072;-72
2022/04/27 10:29:53;;;;;;;3.67;3.47;;;18.90;64.20;;;;;;5148276;27;43848;-74
2022/04/27 10:32:40;;;;;;;3.90;3.67;;;18.90;64.50;;;;;;5148634;27;43338;-72
2022/04/27 10:35:19;;;;;;;3.77;3.57;;;18.80;64.70;;;;;;5148496;27;43985;-73
2022/04/27 10:37:47;;;;;;;3.87;3.57;;;18.80;64.90;;;;;;5148068;27;44004;-73
2022/04/27 10:40:30;;;;;;;3.60;3.40;;;18.80;65.40;;;;;;5148285;27;44092;-72
2022/04/27 10:43:11;;;;;;;3.80;3.60;;;18.80;65.30;;;;;;5129444;27;43556;-72
2022/04/27 10:45:40;;;;;;;3.23;3.03;;;19.00;65.00;;;;;;5148405;27;44029;-73
2022/04/27 10:48:16;;;;;;;3.73;3.43;;;19.20;64.60;;;;;;5147788;27;43923;-73
2022/04/27 10:50:55;;;;;;;3.43;3.13;;;19.30;64.20;;;;;;5129571;27;45157;-72
2022/04/27 10:53:23;;;;;;;3.17;3.03;;;19.50;63.80;;;;;;5147946;27;43436;-73
2022/04/27 10:55:56;;;;;;;3.63;3.43;;;19.60;63.50;;;;;;5129574;27;43521;-73
2022/04/27 10:58:31;;;;;;;3.67;3.53;;;19.80;62.80;;;;;;5147636;27;44048;-73
2022/04/27 11:01:27;;;;;;;3.60;3.40;;;20.00;62.50;;;;;;5147949;27;44025;-72
2022/04/27 11:03:58;;;;;;;3.87;3.50;;;20.10;62.10;;;;;;5143714;27;43937;-72
2022/04/27 11:06:27;;;;;;;3.13;3.03;;;20.20;61.80;;;;;;5128667;27;44171;-73
2022/04/27 11:09:09;;;;;;;3.47;3.37;;;20.20;61.60;;;;;;5147881;27;43980;-73
2022/04/27 11:11:52;;;;;;;3.80;3.60;;;20.10;61.70;;;;;;5129040;27;44118;-72
2022/04/27 11:14:28;;;;;;;3.90;3.60;;;20.00;62.00;;;;;;5141913;27;43900;-71
2022/04/27 11:16:56;;;;;;;3.37;3.27;;;19.80;62.30;;;;;;5147926;27;43433;-73
2022/04/27 11:19:35;;;;;;;3.40;3.20;;;19.60;62.60;;;;;;5147148;27;43900;-72
2022/04/27 11:22:14;;;;;;;3.53;3.20;;;19.40;63.00;;;;;;5147800;27;44025;-73
2022/04/27 11:24:44;;;;;;;3.23;3.03;;;19.30;63.40;;;;;;5150883;27;43778;-73
2022/04/27 11:27:12;;;;;;;3.20;3.10;;;19.20;64.10;;;;;;5132742;27;43589;-72
2022/04/27 11:29:40;;;;;;;3.20;3.10;;;19.10;64.60;;;;;;5151017;27;44061;-73
2022/04/27 11:32:09;;;;;;;3.50;3.30;;;19.20;64.60;;;;;;5151094;27;44135;-72
2022/04/27 11:34:39;;;;;;;3.03;2.93;;;19.20;64.30;;;;;;5150898;27;44048;-73
2022/04/27 11:37:17;;;;;;;2.90;2.90;;;19.30;64.20;;;;;;5151545;27;43489;-73
2022/04/27 11:39:45;;;;;;;3.20;3.10;;;19.20;64.10;;;;;;5125162;27;45322;-73
2022/04/27 11:42:13;;;;;;;3.17;2.97;;;19.10;64.00;;;;;;5150751;27;43988;-73
2022/04/27 11:44:41;;;;;;;2.90;2.80;;;19.10;64.20;;;;;;5132294;27;44013;-73
2022/04/27 11:47:29;;;;;;;3.10;3.00;;;19.00;64.40;;;;;;5151123;27;44075;-73
2022/04/27 11:49:59;;;;;;;3.13;2.93;;;19.00;64.60;;;;;;5151112;27;44111;-73
2022/04/27 11:52:27;;;;;;;3.17;3.07;;;18.90;64.80;;;;;;5150484;27;43927;-73
2022/04/27 11:55:01;;;;;;;3.37;3.17;;;18.80;64.80;;;;;;5150642;27;43876;-73
2022/04/27 11:57:28;;;;;;;3.10;3.00;;;18.80;65.00;;;;;;5150883;27;43428;-72
2022/04/27 11:59:57;;;;;;;13.77;3.53;;;18.80;65.20;;;;;;5150397;27;43892;-73
2022/04/27 12:02:41;;;;;;;6.07;3.30;;;18.70;65.60;;;;;;5147129;27;44005;-72
2022/04/27 12:05:11;;;;;;;9.30;4.03;;;18.80;65.80;;;;;;5131554;27;44024;-72
2022/04/27 12:07:39;;;;;;;14.77;3.90;;;19.00;65.50;;;;;;5150937;27;44151;-72
2022/04/27 12:10:08;;;;;;;12.13;3.50;;;19.10;65.00;;;;;;5150301;27;44024;-73
2022/04/27 12:12:38;;;;;;;6.53;3.60;;;19.20;64.60;;;;;;5150383;27;43914;-73
2022/04/27 12:15:07;;;;;;;8.07;3.80;;;19.30;64.20;;;;;;5150555;27;43984;-72
2022/04/27 12:17:43;;;;;;;8.93;3.90;;;19.30;64.00;;;;;;5144269;27;44485;-72
2022/04/27 12:20:23;;;;;;;5.90;3.90;;;19.20;62.00;;;;;;5131309;27;45572;-72
2022/04/27 12:22:55;;;;;;;6.80;3.53;;;19.20;63.80;;;;;;5150221;27;43454;-73
2022/04/27 12:25:31;;;;;;;4.17;3.30;;;19.10;64.10;;;;;;5149970;27;43963;-72
2022/04/27 12:27:59;;;;;;;8.60;3.57;;;19.00;64.40;;;;;;5150496;27;44011;-72
2022/04/27 12:30:27;;;;;;;6.93;4.17;;;18.90;64.60;;;;;;5130790;27;46036;-73
2022/04/27 12:32:55;;;;;;;12.10;3.77;;;18.90;64.70;;;;;;5150218;27;44030;-72
2022/04/27 12:38:18;;;;;;;13.33;4.47;;;18.80;65.50;;;;;;5129260;27;44035;-72
2022/04/27 12:40:47;;;;;;;15.97;5.03;;;18.90;65.60;;;;;;5129110;27;43919;-72
2022/04/27 12:43:15;;;;;;;15.13;4.57;;;19.00;65.20;;;;;;5128799;27;44351;-71
2022/04/27 12:46:05;;;;;;;10.47;4.00;;;19.10;64.90;;;;;;5129284;27;43765;-72
2022/04/27 12:48:35;;;;;;;11.10;4.33;;;19.00;64.50;;;;;;5129360;27;43880;-73
2022/04/27 12:51:05;;;;;;;12.73;3.83;;;19.00;64.50;;;;;;5128734;27;43941;-72
2022/04/27 12:53:33;;;;;;;6.60;3.97;;;18.90;64.60;;;;;;5128562;27;44132;-73
2022/04/27 12:56:06;;;;;;;7.27;3.57;;;18.90;64.80;;;;;;5110130;27;43430;-73
2022/04/27 12:58:34;;;;;;;11.13;4.90;;;18.80;65.00;;;;;;5128825;27;43959;-72
2022/04/27 13:01:02;;;;;;;8.63;3.87;;;18.80;65.10;;;;;;5128392;27;44952;-73
2022/04/27 13:03:29;;;;;;;6.23;3.93;;;18.70;65.10;;;;;;5128244;27;44000;-73
2022/04/27 13:05:58;;;;;;;5.27;4.03;;;18.70;65.20;;;;;;5127674;27;44033;-73
2022/04/27 13:08:28;;;;;;;9.27;3.80;;;18.70;65.30;;;;;;5110606;27;44016;-73
2022/04/27 13:13:42;;;;;;;12.47;3.67;;;18.70;65.80;;;;;;5128898;27;43985;-73
2022/04/27 13:16:10;;;;;;;7.90;3.67;;;18.90;65.60;;;;;;5127747;27;43483;-73
2022/04/27 13:18:38;;;;;;;7.40;3.57;;;19.00;65.20;;;;;;5110221;27;43444;-73
2022/04/27 13:21:07;;;;;;;5.97;3.40;;;19.20;65.00;;;;;;5128350;27;43894;-73
2022/04/27 13:23:36;;;;;;;7.53;3.60;;;19.30;64.30;;;;;;5109405;27;45975;-72
2022/04/27 13:26:04;;;;;;;3.53;3.27;;;19.30;64.10;;;;;;5128580;27;43970;-73
2022/04/27 13:28:32;;;;;;;4.17;3.63;;;19.20;63.60;;;;;;5109675;27;44010;-73
2022/04/27 13:31:01;;;;;;;6.23;2.97;;;19.20;63.80;;;;;;5128345;27;43936;-73
2022/04/27 13:33:30;;;;;;;3.57;3.27;;;19.10;64.00;;;;;;5127356;27;44007;-73
2022/04/27 13:35:57;;;;;;;3.57;3.37;;;19.00;64.20;;;;;;5128814;27;43954;-72
2022/04/27 13:38:27;;;;;;;5.93;3.60;;;18.90;64.40;;;;;;5129434;27;44150;-72